Campanya Meteocatpedra
Centenari de l'SMC: 100 anys mirant el cel

Dades de l'estació automàtica Aitona

?
?

Resum diari

22:00 TU
Dades diàries de l'estació meteorològica
Temperatura mitjana 19.9 °C
Temperatura màxima 27.7 °C 13:19 TU
Temperatura mínima 12.9 °C 5:43 TU
Humitat relativa mitjana 54%
Precipitació acumulada 0.0 mm
Ratxa màxima del vent (2 m) 27.0 km/h - 244º 14:43 TU
Irradiació solar global 19.8 MJ/m2

El tram horari està expressat en Temps Universal (TU). Cal sumar una hora en horari d'hivern i dues en horari d'estiu per passar a l'hora oficial.

Aitona

Metadades estació meteorològica
Municipi Aitona
Comarca Segrià
Altitud 97 m
Data alta 12.03.1998
Estat actual Operativa
Dades de període
Període
TU
TM
°C
TX
°C
TN
°C
HRM
%
PPT
mm
VVM (2 m)
km/h
DVM (2 m)
graus
VVX (2 m)
km/h
RS
W/m2
00:00 - 00:30 14.6 15.8 14.2 79 0.0 2.2 207 6.8 0
00:30 - 01:00 15.4 15.8 15.0 75 0.0 2.2 204 5.8 0
01:00 - 01:30 15.3 15.8 14.8 75 0.0 2.5 197 9.0 0
01:30 - 02:00 15.0 15.8 14.5 75 0.0 1.4 181 4.7 0
02:00 - 02:30 14.4 14.7 14.0 78 0.0 1.1 149 4.3 0
02:30 - 03:00 13.4 13.8 12.9 84 0.0 0.7 189 5.4 0
03:00 - 03:30 14.1 14.4 13.5 81 0.0 1.8 169 5.0 0
03:30 - 04:00 14.3 14.4 14.2 80 0.0 1.8 178 5.4 0
04:00 - 04:30 13.8 14.3 13.1 82 0.0 1.1 195 3.2 0
04:30 - 05:00 14.3 14.4 13.8 80 0.0 2.2 189 6.1 0
05:00 - 05:30 13.9 14.3 13.5 82 0.0 1.4 206 3.6 0
05:30 - 06:00 13.1 13.5 12.9 85 0.0 1.1 222 2.5 3
06:00 - 06:30 13.4 13.7 13.3 83 0.0 1.4 206 3.6 20
06:30 - 07:00 15.2 16.7 13.7 78 0.0 1.8 203 6.1 134
07:00 - 07:30 17.6 18.2 16.8 69 0.0 4.3 195 10.1 260
07:30 - 08:00 18.6 18.9 18.2 66 0.0 4.0 210 9.0 260
08:00 - 08:30 19.4 19.8 18.7 62 0.0 6.1 233 14.8 433
08:30 - 09:00 20.4 20.9 19.5 58 0.0 6.1 231 16.2 550
09:00 - 09:30 21.5 22.4 20.9 55 0.0 5.4 231 15.8 554
09:30 - 10:00 22.2 22.7 21.6 52 0.0 5.0 230 14.8 481
10:00 - 10:30 23.1 23.9 22.0 47 0.0 5.0 254 14.8 643
10:30 - 11:00 24.5 25.2 23.8 43 0.0 5.8 257 22.0 752
11:00 - 11:30 25.5 26.0 24.6 39 0.0 6.1 285 18.0 775
11:30 - 12:00 26.0 26.5 25.6 37 0.0 5.4 294 17.6 714
12:00 - 12:30 26.6 27.3 25.5 34 0.0 5.8 289 16.6 791
12:30 - 13:00 26.8 27.3 26.5 30 0.0 6.5 288 18.4 762
13:00 - 13:30 27.2 27.7 26.7 27 0.0 6.1 278 18.7 730
13:30 - 14:00 27.1 27.4 26.7 25 0.0 6.8 277 22.3 683
14:00 - 14:30 26.7 27.4 26.3 24 0.0 7.6 263 21.2 621
14:30 - 15:00 26.4 26.8 25.9 26 0.0 7.2 255 27.0 545
15:00 - 15:30 25.6 26.3 25.0 31 0.0 9.4 237 21.2 459
15:30 - 16:00 24.8 24.9 24.5 32 0.0 10.1 224 22.7 365
16:00 - 16:30 24.3 24.6 24.0 33 0.0 9.7 228 23.0 275
16:30 - 17:00 23.7 24.1 23.1 35 0.0 8.6 238 22.0 172
17:00 - 17:30 22.5 23.1 22.1 35 0.0 8.6 232 23.8 63
17:30 - 18:00 21.7 22.2 21.1 38 0.0 5.8 232 18.7 19
18:00 - 18:30 20.8 21.0 20.6 39 0.0 5.8 242 17.6 0
18:30 - 19:00 20.4 20.7 20.0 41 0.0 6.1 242 20.2 0
19:00 - 19:30 19.5 20.0 19.2 46 0.0 5.4 224 15.8 0
19:30 - 20:00 19.6 19.7 19.5 43 0.0 4.3 256 13.7 0
20:00 - 20:30 19.2 19.4 18.9 45 0.0 5.0 229 16.6 0
20:30 - 21:00 18.7 19.0 18.4 48 0.0 4.0 218 12.2 0
21:00 - 21:30 18.4 18.6 18.1 49 0.0 5.8 234 16.6 0
21:30 - 22:00 17.5 18.1 17.0 56 0.0 3.6 189 9.7 0
22:00 - 22:30 16.9 17.0 16.8 59 0.0 4.0 195 9.7 0

Les dades en taronja només han passat un control de qualitat automàtic. Resta pendent la seva validació definitiva.